sensor_id;sensor_type;location;lat;lon;timestamp;P1;durP1;ratioP1;P2;durP2;ratioP2
16426;SDS011;8322;-33.900;151.170;2022-12-20T00:01:47;6.30;;;1.70;;
16426;SDS011;8322;-33.900;151.170;2022-12-20T00:04:17;8.90;;;1.60;;
16426;SDS011;8322;-33.900;151.170;2022-12-20T00:06:46;6.65;;;1.30;;
16426;SDS011;8322;-33.900;151.170;2022-12-20T00:09:16;10.48;;;2.17;;
16426;SDS011;8322;-33.900;151.170;2022-12-20T00:11:46;7.78;;;2.00;;
16426;SDS011;8322;-33.900;151.170;2022-12-20T00:14:17;9.82;;;1.73;;
16426;SDS011;8322;-33.900;151.170;2022-12-20T00:16:46;9.60;;;1.88;;
16426;SDS011;8322;-33.900;151.170;2022-12-20T00:19:16;5.53;;;1.50;;
16426;SDS011;8322;-33.900;151.170;2022-12-20T00:21:46;6.82;;;1.20;;
16426;SDS011;8322;-33.900;151.170;2022-12-20T00:24:15;6.57;;;1.25;;
16426;SDS011;8322;-33.900;151.170;2022-12-20T00:26:45;7.45;;;1.70;;
16426;SDS011;8322;-33.900;151.170;2022-12-20T00:29:14;7.78;;;1.60;;
16426;SDS011;8322;-33.900;151.170;2022-12-20T00:31:46;6.88;;;1.42;;
16426;SDS011;8322;-33.900;151.170;2022-12-20T00:34:15;7.07;;;1.30;;
16426;SDS011;8322;-33.900;151.170;2022-12-20T00:36:47;7.22;;;1.92;;
16426;SDS011;8322;-33.900;151.170;2022-12-20T00:39:17;10.68;;;2.13;;
16426;SDS011;8322;-33.900;151.170;2022-12-20T00:41:46;8.25;;;1.60;;
16426;SDS011;8322;-33.900;151.170;2022-12-20T00:44:16;11.27;;;2.00;;
16426;SDS011;8322;-33.900;151.170;2022-12-20T00:46:47;9.35;;;1.95;;
16426;SDS011;8322;-33.900;151.170;2022-12-20T00:49:17;7.80;;;1.30;;
16426;SDS011;8322;-33.900;151.170;2022-12-20T00:51:46;7.38;;;1.80;;
16426;SDS011;8322;-33.900;151.170;2022-12-20T00:54:16;7.82;;;1.80;;
16426;SDS011;8322;-33.900;151.170;2022-12-20T00:56:45;5.72;;;1.40;;
16426;SDS011;8322;-33.900;151.170;2022-12-20T00:59:15;7.63;;;1.73;;
16426;SDS011;8322;-33.900;151.170;2022-12-20T01:01:45;5.80;;;1.48;;
16426;SDS011;8322;-33.900;151.170;2022-12-20T01:04:17;8.50;;;1.92;;
16426;SDS011;8322;-33.900;151.170;2022-12-20T01:06:46;8.25;;;1.92;;
16426;SDS011;8322;-33.900;151.170;2022-12-20T01:09:16;13.75;;;1.58;;
16426;SDS011;8322;-33.900;151.170;2022-12-20T01:11:45;9.52;;;1.40;;
16426;SDS011;8322;-33.900;151.170;2022-12-20T01:14:15;5.82;;;1.58;;
16426;SDS011;8322;-33.900;151.170;2022-12-20T01:16:45;5.32;;;1.45;;
16426;SDS011;8322;-33.900;151.170;2022-12-20T01:19:17;8.23;;;1.50;;
16426;SDS011;8322;-33.900;151.170;2022-12-20T01:21:47;8.05;;;1.60;;
16426;SDS011;8322;-33.900;151.170;2022-12-20T01:24:16;9.90;;;1.52;;
16426;SDS011;8322;-33.900;151.170;2022-12-20T01:26:47;7.00;;;1.33;;
16426;SDS011;8322;-33.900;151.170;2022-12-20T01:29:16;6.43;;;1.50;;
16426;SDS011;8322;-33.900;151.170;2022-12-20T01:31:46;9.65;;;1.38;;
16426;SDS011;8322;-33.900;151.170;2022-12-20T01:34:17;7.28;;;1.90;;
16426;SDS011;8322;-33.900;151.170;2022-12-20T01:36:47;8.82;;;1.73;;
16426;SDS011;8322;-33.900;151.170;2022-12-20T01:39:16;7.07;;;1.90;;
16426;SDS011;8322;-33.900;151.170;2022-12-20T01:41:46;8.52;;;1.65;;
16426;SDS011;8322;-33.900;151.170;2022-12-20T01:47:03;8.55;;;1.40;;
16426;SDS011;8322;-33.900;151.170;2022-12-20T01:49:34;6.63;;;1.73;;
16426;SDS011;8322;-33.900;151.170;2022-12-20T01:52:07;7.45;;;1.52;;
16426;SDS011;8322;-33.900;151.170;2022-12-20T01:54:38;8.35;;;1.50;;
16426;SDS011;8322;-33.900;151.170;2022-12-20T01:57:12;6.43;;;1.40;;
16426;SDS011;8322;-33.900;151.170;2022-12-20T01:59:43;7.53;;;1.60;;
16426;SDS011;8322;-33.900;151.170;2022-12-20T02:02:13;4.70;;;1.10;;
16426;SDS011;8322;-33.900;151.170;2022-12-20T02:04:44;5.38;;;1.50;;
16426;SDS011;8322;-33.900;151.170;2022-12-20T02:07:15;6.72;;;1.42;;
16426;SDS011;8322;-33.900;151.170;2022-12-20T02:09:46;6.57;;;1.35;;
16426;SDS011;8322;-33.900;151.170;2022-12-20T02:12:18;6.20;;;1.30;;
16426;SDS011;8322;-33.900;151.170;2022-12-20T02:14:58;6.00;;;1.35;;
16426;SDS011;8322;-33.900;151.170;2022-12-20T02:17:32;9.75;;;1.40;;
16426;SDS011;8322;-33.900;151.170;2022-12-20T02:20:21;6.80;;;1.40;;
16426;SDS011;8322;-33.900;151.170;2022-12-20T02:23:00;5.13;;;1.25;;
16426;SDS011;8322;-33.900;151.170;2022-12-20T02:25:41;7.00;;;1.33;;
16426;SDS011;8322;-33.900;151.170;2022-12-20T02:28:13;8.23;;;1.35;;
16426;SDS011;8322;-33.900;151.170;2022-12-20T02:30:46;6.95;;;1.60;;
16426;SDS011;8322;-33.900;151.170;2022-12-20T02:33:17;6.38;;;1.80;;
16426;SDS011;8322;-33.900;151.170;2022-12-20T02:35:47;5.72;;;1.40;;
16426;SDS011;8322;-33.900;151.170;2022-12-20T02:38:24;6.35;;;1.13;;
16426;SDS011;8322;-33.900;151.170;2022-12-20T02:40:54;5.97;;;1.20;;
16426;SDS011;8322;-33.900;151.170;2022-12-20T02:43:25;6.18;;;1.40;;
16426;SDS011;8322;-33.900;151.170;2022-12-20T02:46:13;6.65;;;1.38;;
16426;SDS011;8322;-33.900;151.170;2022-12-20T02:48:43;5.32;;;1.30;;
16426;SDS011;8322;-33.900;151.170;2022-12-20T02:51:15;6.03;;;1.38;;
16426;SDS011;8322;-33.900;151.170;2022-12-20T02:53:45;3.97;;;1.00;;
16426;SDS011;8322;-33.900;151.170;2022-12-20T02:56:18;7.35;;;1.30;;
16426;SDS011;8322;-33.900;151.170;2022-12-20T02:58:49;6.65;;;1.20;;
16426;SDS011;8322;-33.900;151.170;2022-12-20T03:01:22;6.63;;;1.30;;
16426;SDS011;8322;-33.900;151.170;2022-12-20T03:03:53;6.03;;;1.30;;
16426;SDS011;8322;-33.900;151.170;2022-12-20T03:06:23;6.65;;;1.00;;
16426;SDS011;8322;-33.900;151.170;2022-12-20T03:08:52;6.70;;;1.17;;
16426;SDS011;8322;-33.900;151.170;2022-12-20T03:11:22;3.30;;;1.08;;
16426;SDS011;8322;-33.900;151.170;2022-12-20T03:13:51;9.48;;;1.40;;
16426;SDS011;8322;-33.900;151.170;2022-12-20T03:16:23;6.78;;;1.20;;
16426;SDS011;8322;-33.900;151.170;2022-12-20T03:18:52;7.25;;;1.10;;
16426;SDS011;8322;-33.900;151.170;2022-12-20T03:21:22;7.00;;;1.00;;
16426;SDS011;8322;-33.900;151.170;2022-12-20T03:23:51;4.68;;;0.93;;
16426;SDS011;8322;-33.900;151.170;2022-12-20T03:26:21;5.22;;;1.00;;
16426;SDS011;8322;-33.900;151.170;2022-12-20T03:28:50;8.13;;;1.60;;
16426;SDS011;8322;-33.900;151.170;2022-12-20T03:31:20;5.55;;;1.40;;
16426;SDS011;8322;-33.900;151.170;2022-12-20T03:33:51;5.78;;;1.60;;
16426;SDS011;8322;-33.900;151.170;2022-12-20T03:36:21;4.30;;;1.05;;
16426;SDS011;8322;-33.900;151.170;2022-12-20T03:38:51;3.35;;;0.88;;
16426;SDS011;8322;-33.900;151.170;2022-12-20T03:41:21;6.05;;;0.90;;
16426;SDS011;8322;-33.900;151.170;2022-12-20T03:43:51;4.25;;;1.20;;
16426;SDS011;8322;-33.900;151.170;2022-12-20T03:46:20;5.00;;;1.02;;
16426;SDS011;8322;-33.900;151.170;2022-12-20T03:48:51;7.45;;;2.00;;
16426;SDS011;8322;-33.900;151.170;2022-12-20T03:51:21;6.07;;;1.58;;
16426;SDS011;8322;-33.900;151.170;2022-12-20T03:53:51;9.68;;;1.60;;
16426;SDS011;8322;-33.900;151.170;2022-12-20T03:56:20;6.18;;;1.30;;
16426;SDS011;8322;-33.900;151.170;2022-12-20T03:58:50;3.20;;;0.82;;
16426;SDS011;8322;-33.900;151.170;2022-12-20T04:01:20;5.15;;;1.00;;
16426;SDS011;8322;-33.900;151.170;2022-12-20T04:03:52;3.25;;;0.75;;
16426;SDS011;8322;-33.900;151.170;2022-12-20T04:06:22;4.80;;;1.00;;
16426;SDS011;8322;-33.900;151.170;2022-12-20T04:08:51;3.72;;;0.50;;
16426;SDS011;8322;-33.900;151.170;2022-12-20T04:11:21;5.18;;;1.45;;
16426;SDS011;8322;-33.900;151.170;2022-12-20T04:13:50;3.13;;;0.77;;
16426;SDS011;8322;-33.900;151.170;2022-12-20T04:16:20;3.78;;;0.80;;
16426;SDS011;8322;-33.900;151.170;2022-12-20T04:18:52;4.22;;;0.80;;
16426;SDS011;8322;-33.900;151.170;2022-12-20T04:21:22;3.75;;;1.00;;
16426;SDS011;8322;-33.900;151.170;2022-12-20T04:23:52;6.28;;;0.88;;
16426;SDS011;8322;-33.900;151.170;2022-12-20T04:26:21;4.40;;;0.75;;
16426;SDS011;8322;-33.900;151.170;2022-12-20T04:28:51;4.38;;;1.00;;
16426;SDS011;8322;-33.900;151.170;2022-12-20T04:31:21;3.97;;;1.00;;
16426;SDS011;8322;-33.900;151.170;2022-12-20T04:33:52;5.80;;;1.00;;
16426;SDS011;8322;-33.900;151.170;2022-12-20T04:36:22;3.25;;;1.05;;
16426;SDS011;8322;-33.900;151.170;2022-12-20T04:38:51;3.80;;;0.90;;
16426;SDS011;8322;-33.900;151.170;2022-12-20T04:41:21;3.97;;;0.93;;
16426;SDS011;8322;-33.900;151.170;2022-12-20T04:43:52;4.10;;;0.90;;
16426;SDS011;8322;-33.900;151.170;2022-12-20T04:46:22;3.72;;;1.17;;
16426;SDS011;8322;-33.900;151.170;2022-12-20T04:48:53;4.55;;;1.30;;
16426;SDS011;8322;-33.900;151.170;2022-12-20T04:51:23;3.38;;;0.70;;
16426;SDS011;8322;-33.900;151.170;2022-12-20T04:53:52;3.33;;;0.80;;
16426;SDS011;8322;-33.900;151.170;2022-12-20T04:56:21;5.43;;;1.00;;
16426;SDS011;8322;-33.900;151.170;2022-12-20T04:58:51;4.85;;;1.30;;
16426;SDS011;8322;-33.900;151.170;2022-12-20T05:01:21;7.03;;;1.45;;
16426;SDS011;8322;-33.900;151.170;2022-12-20T05:03:50;4.55;;;1.10;;
16426;SDS011;8322;-33.900;151.170;2022-12-20T05:06:22;4.32;;;0.90;;
16426;SDS011;8322;-33.900;151.170;2022-12-20T05:08:51;4.65;;;0.90;;
16426;SDS011;8322;-33.900;151.170;2022-12-20T05:11:21;4.28;;;0.90;;
16426;SDS011;8322;-33.900;151.170;2022-12-20T05:13:51;5.20;;;1.00;;
16426;SDS011;8322;-33.900;151.170;2022-12-20T05:16:20;3.75;;;1.15;;
16426;SDS011;8322;-33.900;151.170;2022-12-20T05:18:50;4.35;;;0.95;;
16426;SDS011;8322;-33.900;151.170;2022-12-20T05:21:21;5.13;;;1.55;;
16426;SDS011;8322;-33.900;151.170;2022-12-20T05:24:07;4.85;;;0.98;;
16426;SDS011;8322;-33.900;151.170;2022-12-20T05:26:53;6.03;;;1.05;;
16426;SDS011;8322;-33.900;151.170;2022-12-20T05:29:22;5.38;;;1.15;;
16426;SDS011;8322;-33.900;151.170;2022-12-20T05:31:52;6.22;;;1.33;;
16426;SDS011;8322;-33.900;151.170;2022-12-20T05:34:22;6.85;;;1.52;;
16426;SDS011;8322;-33.900;151.170;2022-12-20T05:36:53;3.55;;;1.20;;
16426;SDS011;8322;-33.900;151.170;2022-12-20T05:39:22;5.00;;;1.35;;
16426;SDS011;8322;-33.900;151.170;2022-12-20T05:41:53;6.15;;;1.00;;
16426;SDS011;8322;-33.900;151.170;2022-12-20T05:44:22;7.15;;;1.25;;
16426;SDS011;8322;-33.900;151.170;2022-12-20T05:46:52;6.18;;;1.20;;
16426;SDS011;8322;-33.900;151.170;2022-12-20T05:49:21;7.57;;;1.58;;
16426;SDS011;8322;-33.900;151.170;2022-12-20T05:51:51;5.15;;;1.30;;
16426;SDS011;8322;-33.900;151.170;2022-12-20T05:54:22;3.63;;;1.20;;
16426;SDS011;8322;-33.900;151.170;2022-12-20T05:56:52;5.65;;;1.13;;
16426;SDS011;8322;-33.900;151.170;2022-12-20T05:59:21;7.53;;;1.38;;
16426;SDS011;8322;-33.900;151.170;2022-12-20T06:01:51;5.18;;;1.50;;
16426;SDS011;8322;-33.900;151.170;2022-12-20T06:04:21;4.45;;;0.88;;
16426;SDS011;8322;-33.900;151.170;2022-12-20T06:06:50;8.93;;;1.30;;
16426;SDS011;8322;-33.900;151.170;2022-12-20T06:09:20;4.38;;;1.20;;
16426;SDS011;8322;-33.900;151.170;2022-12-20T06:11:51;8.10;;;1.17;;
16426;SDS011;8322;-33.900;151.170;2022-12-20T06:14:21;4.57;;;1.00;;
16426;SDS011;8322;-33.900;151.170;2022-12-20T06:16:50;2.00;;;0.80;;
16426;SDS011;8322;-33.900;151.170;2022-12-20T06:19:20;4.70;;;0.90;;
16426;SDS011;8322;-33.900;151.170;2022-12-20T06:21:49;5.65;;;1.20;;
16426;SDS011;8322;-33.900;151.170;2022-12-20T06:24:19;4.53;;;1.00;;
16426;SDS011;8322;-33.900;151.170;2022-12-20T06:26:52;4.72;;;0.95;;
16426;SDS011;8322;-33.900;151.170;2022-12-20T06:29:21;3.83;;;0.80;;
16426;SDS011;8322;-33.900;151.170;2022-12-20T06:31:51;4.78;;;0.70;;
16426;SDS011;8322;-33.900;151.170;2022-12-20T06:34:20;4.18;;;1.10;;
16426;SDS011;8322;-33.900;151.170;2022-12-20T06:36:50;2.80;;;0.85;;
16426;SDS011;8322;-33.900;151.170;2022-12-20T06:39:19;6.70;;;1.10;;
16426;SDS011;8322;-33.900;151.170;2022-12-20T06:41:49;5.13;;;1.00;;
16426;SDS011;8322;-33.900;151.170;2022-12-20T06:44:20;3.83;;;1.42;;
16426;SDS011;8322;-33.900;151.170;2022-12-20T06:46:49;2.50;;;0.90;;
16426;SDS011;8322;-33.900;151.170;2022-12-20T06:49:19;3.22;;;0.75;;
16426;SDS011;8322;-33.900;151.170;2022-12-20T06:51:49;4.32;;;1.08;;
16426;SDS011;8322;-33.900;151.170;2022-12-20T06:54:18;4.47;;;1.08;;
16426;SDS011;8322;-33.900;151.170;2022-12-20T06:56:48;3.22;;;0.88;;
16426;SDS011;8322;-33.900;151.170;2022-12-20T06:59:17;3.20;;;0.80;;
16426;SDS011;8322;-33.900;151.170;2022-12-20T07:01:49;3.97;;;1.00;;
16426;SDS011;8322;-33.900;151.170;2022-12-20T07:04:18;3.17;;;0.90;;
16426;SDS011;8322;-33.900;151.170;2022-12-20T07:06:48;3.20;;;0.80;;
16426;SDS011;8322;-33.900;151.170;2022-12-20T07:09:17;1.92;;;0.70;;
16426;SDS011;8322;-33.900;151.170;2022-12-20T07:11:47;6.10;;;1.25;;
16426;SDS011;8322;-33.900;151.170;2022-12-20T07:14:17;3.25;;;1.10;;
16426;SDS011;8322;-33.900;151.170;2022-12-20T07:16:48;2.88;;;1.10;;
16426;SDS011;8322;-33.900;151.170;2022-12-20T07:19:17;3.70;;;1.48;;
16426;SDS011;8322;-33.900;151.170;2022-12-20T07:21:47;4.20;;;1.20;;
16426;SDS011;8322;-33.900;151.170;2022-12-20T07:24:17;3.80;;;0.80;;
16426;SDS011;8322;-33.900;151.170;2022-12-20T07:26:46;3.42;;;0.90;;
16426;SDS011;8322;-33.900;151.170;2022-12-20T07:29:16;4.88;;;0.93;;
16426;SDS011;8322;-33.900;151.170;2022-12-20T07:31:50;3.28;;;0.80;;
16426;SDS011;8322;-33.900;151.170;2022-12-20T07:34:20;3.15;;;0.75;;
16426;SDS011;8322;-33.900;151.170;2022-12-20T07:36:49;1.95;;;1.00;;
16426;SDS011;8322;-33.900;151.170;2022-12-20T07:39:19;1.48;;;0.70;;
16426;SDS011;8322;-33.900;151.170;2022-12-20T07:41:51;2.53;;;0.98;;
16426;SDS011;8322;-33.900;151.170;2022-12-20T07:44:21;4.78;;;0.90;;
16426;SDS011;8322;-33.900;151.170;2022-12-20T07:46:52;2.30;;;1.02;;
16426;SDS011;8322;-33.900;151.170;2022-12-20T07:49:22;2.40;;;0.82;;
16426;SDS011;8322;-33.900;151.170;2022-12-20T07:51:52;6.45;;;1.80;;
16426;SDS011;8322;-33.900;151.170;2022-12-20T07:54:23;3.50;;;2.15;;
16426;SDS011;8322;-33.900;151.170;2022-12-20T07:56:54;1.92;;;0.98;;
16426;SDS011;8322;-33.900;151.170;2022-12-20T07:59:27;2.35;;;0.70;;
16426;SDS011;8322;-33.900;151.170;2022-12-20T08:01:59;4.00;;;0.60;;
16426;SDS011;8322;-33.900;151.170;2022-12-20T08:04:29;2.40;;;0.70;;
16426;SDS011;8322;-33.900;151.170;2022-12-20T08:06:59;5.32;;;0.80;;
16426;SDS011;8322;-33.900;151.170;2022-12-20T08:09:30;3.15;;;1.20;;
16426;SDS011;8322;-33.900;151.170;2022-12-20T08:12:03;2.03;;;0.80;;
16426;SDS011;8322;-33.900;151.170;2022-12-20T08:14:33;3.45;;;0.80;;
16426;SDS011;8322;-33.900;151.170;2022-12-20T08:17:04;3.42;;;0.80;;
16426;SDS011;8322;-33.900;151.170;2022-12-20T08:19:33;4.68;;;1.00;;
16426;SDS011;8322;-33.900;151.170;2022-12-20T08:22:03;3.20;;;0.90;;
16426;SDS011;8322;-33.900;151.170;2022-12-20T08:24:33;5.70;;;1.30;;
16426;SDS011;8322;-33.900;151.170;2022-12-20T08:27:03;4.40;;;0.77;;
16426;SDS011;8322;-33.900;151.170;2022-12-20T08:29:32;4.40;;;0.90;;
16426;SDS011;8322;-33.900;151.170;2022-12-20T08:32:02;1.67;;;0.70;;
16426;SDS011;8322;-33.900;151.170;2022-12-20T08:34:33;4.65;;;0.98;;
16426;SDS011;8322;-33.900;151.170;2022-12-20T08:37:03;2.65;;;0.68;;
16426;SDS011;8322;-33.900;151.170;2022-12-20T08:39:32;3.15;;;0.70;;
16426;SDS011;8322;-33.900;151.170;2022-12-20T08:42:03;4.00;;;0.90;;
16426;SDS011;8322;-33.900;151.170;2022-12-20T08:44:33;2.60;;;0.80;;
16426;SDS011;8322;-33.900;151.170;2022-12-20T08:47:03;1.83;;;0.85;;
16426;SDS011;8322;-33.900;151.170;2022-12-20T08:49:34;2.55;;;0.90;;
16426;SDS011;8322;-33.900;151.170;2022-12-20T08:52:04;3.13;;;0.93;;
16426;SDS011;8322;-33.900;151.170;2022-12-20T08:54:33;3.80;;;0.80;;
16426;SDS011;8322;-33.900;151.170;2022-12-20T08:57:03;2.08;;;0.70;;
16426;SDS011;8322;-33.900;151.170;2022-12-20T08:59:32;4.18;;;0.90;;
16426;SDS011;8322;-33.900;151.170;2022-12-20T09:02:02;5.13;;;1.10;;
16426;SDS011;8322;-33.900;151.170;2022-12-20T09:04:31;4.75;;;1.10;;
16426;SDS011;8322;-33.900;151.170;2022-12-20T09:07:03;3.55;;;0.70;;
16426;SDS011;8322;-33.900;151.170;2022-12-20T09:09:33;3.08;;;0.90;;
16426;SDS011;8322;-33.900;151.170;2022-12-20T09:12:02;6.05;;;1.35;;
16426;SDS011;8322;-33.900;151.170;2022-12-20T09:14:32;3.55;;;1.23;;
16426;SDS011;8322;-33.900;151.170;2022-12-20T09:17:02;2.88;;;1.10;;
16426;SDS011;8322;-33.900;151.170;2022-12-20T09:19:31;5.00;;;1.10;;
16426;SDS011;8322;-33.900;151.170;2022-12-20T09:22:01;3.03;;;0.90;;
16426;SDS011;8322;-33.900;151.170;2022-12-20T09:24:33;6.75;;;1.10;;
16426;SDS011;8322;-33.900;151.170;2022-12-20T09:27:02;4.60;;;1.08;;
16426;SDS011;8322;-33.900;151.170;2022-12-20T09:29:32;4.25;;;1.02;;
16426;SDS011;8322;-33.900;151.170;2022-12-20T09:32:01;2.53;;;0.80;;
16426;SDS011;8322;-33.900;151.170;2022-12-20T09:34:30;3.08;;;0.90;;
16426;SDS011;8322;-33.900;151.170;2022-12-20T09:37:00;3.95;;;1.30;;
16426;SDS011;8322;-33.900;151.170;2022-12-20T09:39:29;3.28;;;0.75;;
16426;SDS011;8322;-33.900;151.170;2022-12-20T09:42:01;3.03;;;0.80;;
16426;SDS011;8322;-33.900;151.170;2022-12-20T09:44:35;3.25;;;0.90;;
16426;SDS011;8322;-33.900;151.170;2022-12-20T09:47:06;1.60;;;0.60;;
16426;SDS011;8322;-33.900;151.170;2022-12-20T09:49:39;4.53;;;1.15;;
16426;SDS011;8322;-33.900;151.170;2022-12-20T09:55:00;3.25;;;1.00;;
16426;SDS011;8322;-33.900;151.170;2022-12-20T09:57:42;2.28;;;1.02;;
16426;SDS011;8322;-33.900;151.170;2022-12-20T10:00:15;4.30;;;1.38;;
16426;SDS011;8322;-33.900;151.170;2022-12-20T10:02:45;2.58;;;1.20;;
16426;SDS011;8322;-33.900;151.170;2022-12-20T10:05:15;3.78;;;0.93;;
16426;SDS011;8322;-33.900;151.170;2022-12-20T10:07:51;2.05;;;0.70;;
16426;SDS011;8322;-33.900;151.170;2022-12-20T10:10:32;3.42;;;0.90;;
16426;SDS011;8322;-33.900;151.170;2022-12-20T10:13:09;2.10;;;0.80;;
16426;SDS011;8322;-33.900;151.170;2022-12-20T10:15:42;2.60;;;0.82;;
16426;SDS011;8322;-33.900;151.170;2022-12-20T10:18:17;2.83;;;1.02;;
16426;SDS011;8322;-33.900;151.170;2022-12-20T10:20:52;2.80;;;0.88;;
16426;SDS011;8322;-33.900;151.170;2022-12-20T10:23:27;4.30;;;1.10;;
16426;SDS011;8322;-33.900;151.170;2022-12-20T10:25:58;2.90;;;1.17;;
16426;SDS011;8322;-33.900;151.170;2022-12-20T10:28:30;2.72;;;0.98;;
16426;SDS011;8322;-33.900;151.170;2022-12-20T10:31:02;6.00;;;1.02;;
16426;SDS011;8322;-33.900;151.170;2022-12-20T10:33:33;4.75;;;1.00;;
16426;SDS011;8322;-33.900;151.170;2022-12-20T10:36:21;2.70;;;0.95;;
16426;SDS011;8322;-33.900;151.170;2022-12-20T10:38:52;3.67;;;0.98;;
16426;SDS011;8322;-33.900;151.170;2022-12-20T10:41:25;4.38;;;1.20;;
16426;SDS011;8322;-33.900;151.170;2022-12-20T10:43:57;2.78;;;1.00;;
16426;SDS011;8322;-33.900;151.170;2022-12-20T10:46:34;2.88;;;0.80;;
16426;SDS011;8322;-33.900;151.170;2022-12-20T10:49:27;3.30;;;1.13;;
16426;SDS011;8322;-33.900;151.170;2022-12-20T10:51:57;3.13;;;1.00;;
16426;SDS011;8322;-33.900;151.170;2022-12-20T10:54:30;2.55;;;1.00;;
16426;SDS011;8322;-33.900;151.170;2022-12-20T10:57:01;4.28;;;0.98;;
16426;SDS011;8322;-33.900;151.170;2022-12-20T10:59:34;2.63;;;1.00;;
16426;SDS011;8322;-33.900;151.170;2022-12-20T11:02:18;3.90;;;1.15;;
16426;SDS011;8322;-33.900;151.170;2022-12-20T11:05:01;5.63;;;1.00;;
16426;SDS011;8322;-33.900;151.170;2022-12-20T11:07:32;3.35;;;1.13;;
16426;SDS011;8322;-33.900;151.170;2022-12-20T11:10:02;1.88;;;0.80;;
16426;SDS011;8322;-33.900;151.170;2022-12-20T11:12:32;3.05;;;1.00;;
16426;SDS011;8322;-33.900;151.170;2022-12-20T11:15:09;3.35;;;0.98;;
16426;SDS011;8322;-33.900;151.170;2022-12-20T11:17:40;2.92;;;0.70;;
16426;SDS011;8322;-33.900;151.170;2022-12-20T11:20:23;3.17;;;0.80;;
16426;SDS011;8322;-33.900;151.170;2022-12-20T11:23:00;2.95;;;0.70;;
16426;SDS011;8322;-33.900;151.170;2022-12-20T11:25:40;2.40;;;0.82;;
16426;SDS011;8322;-33.900;151.170;2022-12-20T11:28:19;2.85;;;0.90;;
16426;SDS011;8322;-33.900;151.170;2022-12-20T11:30:56;4.22;;;1.00;;
16426;SDS011;8322;-33.900;151.170;2022-12-20T11:33:39;5.45;;;0.90;;
16426;SDS011;8322;-33.900;151.170;2022-12-20T11:36:12;4.45;;;1.08;;
16426;SDS011;8322;-33.900;151.170;2022-12-20T11:38:45;6.22;;;1.27;;
16426;SDS011;8322;-33.900;151.170;2022-12-20T11:41:18;3.03;;;1.10;;
16426;SDS011;8322;-33.900;151.170;2022-12-20T11:43:52;4.38;;;1.42;;
16426;SDS011;8322;-33.900;151.170;2022-12-20T11:46:29;6.28;;;1.15;;
16426;SDS011;8322;-33.900;151.170;2022-12-20T11:49:07;5.00;;;0.95;;
16426;SDS011;8322;-33.900;151.170;2022-12-20T11:51:41;5.35;;;1.00;;
16426;SDS011;8322;-33.900;151.170;2022-12-20T11:54:14;3.95;;;1.13;;
16426;SDS011;8322;-33.900;151.170;2022-12-20T11:56:46;3.15;;;1.15;;
16426;SDS011;8322;-33.900;151.170;2022-12-20T11:59:17;4.93;;;1.20;;
16426;SDS011;8322;-33.900;151.170;2022-12-20T12:01:52;5.63;;;1.20;;
16426;SDS011;8322;-33.900;151.170;2022-12-20T12:04:24;4.07;;;1.30;;
16426;SDS011;8322;-33.900;151.170;2022-12-20T12:06:56;3.33;;;1.13;;
16426;SDS011;8322;-33.900;151.170;2022-12-20T12:09:27;4.15;;;1.10;;
16426;SDS011;8322;-33.900;151.170;2022-12-20T12:12:00;5.70;;;1.13;;
16426;SDS011;8322;-33.900;151.170;2022-12-20T12:14:34;6.03;;;1.55;;
16426;SDS011;8322;-33.900;151.170;2022-12-20T12:17:12;3.05;;;1.00;;
16426;SDS011;8322;-33.900;151.170;2022-12-20T12:19:45;3.13;;;1.10;;
16426;SDS011;8322;-33.900;151.170;2022-12-20T12:22:18;5.93;;;1.50;;
16426;SDS011;8322;-33.900;151.170;2022-12-20T12:24:50;5.07;;;1.10;;
16426;SDS011;8322;-33.900;151.170;2022-12-20T12:27:21;4.97;;;1.45;;
16426;SDS011;8322;-33.900;151.170;2022-12-20T12:29:51;2.67;;;1.20;;
16426;SDS011;8322;-33.900;151.170;2022-12-20T12:32:25;3.40;;;1.27;;
16426;SDS011;8322;-33.900;151.170;2022-12-20T12:35:02;3.72;;;0.90;;
16426;SDS011;8322;-33.900;151.170;2022-12-20T12:37:48;3.58;;;0.95;;
16426;SDS011;8322;-33.900;151.170;2022-12-20T12:45:50;5.20;;;1.20;;
16426;SDS011;8322;-33.900;151.170;2022-12-20T12:48:23;3.55;;;1.05;;
16426;SDS011;8322;-33.900;151.170;2022-12-20T12:50:55;2.78;;;1.20;;
16426;SDS011;8322;-33.900;151.170;2022-12-20T12:53:28;3.88;;;1.10;;
16426;SDS011;8322;-33.900;151.170;2022-12-20T12:55:59;5.03;;;1.10;;
16426;SDS011;8322;-33.900;151.170;2022-12-20T13:01:45;3.38;;;0.90;;
16426;SDS011;8322;-33.900;151.170;2022-12-20T13:04:24;2.78;;;0.90;;
16426;SDS011;8322;-33.900;151.170;2022-12-20T13:06:55;2.97;;;0.80;;
16426;SDS011;8322;-33.900;151.170;2022-12-20T13:09:42;3.78;;;0.93;;
16426;SDS011;8322;-33.900;151.170;2022-12-20T13:14:59;3.13;;;1.00;;
16426;SDS011;8322;-33.900;151.170;2022-12-20T13:20:21;2.63;;;1.05;;
16426;SDS011;8322;-33.900;151.170;2022-12-20T13:25:43;2.47;;;0.90;;
16426;SDS011;8322;-33.900;151.170;2022-12-20T13:33:47;3.33;;;0.80;;
16426;SDS011;8322;-33.900;151.170;2022-12-20T13:36:32;3.13;;;0.90;;
16426;SDS011;8322;-33.900;151.170;2022-12-20T13:39:06;3.70;;;1.00;;
16426;SDS011;8322;-33.900;151.170;2022-12-20T13:42:05;3.55;;;0.88;;
16426;SDS011;8322;-33.900;151.170;2022-12-20T13:44:41;4.45;;;0.80;;
16426;SDS011;8322;-33.900;151.170;2022-12-20T13:49:59;4.18;;;0.90;;
16426;SDS011;8322;-33.900;151.170;2022-12-20T13:52:41;4.80;;;0.95;;
16426;SDS011;8322;-33.900;151.170;2022-12-20T13:55:15;2.17;;;0.90;;
16426;SDS011;8322;-33.900;151.170;2022-12-20T13:57:45;3.70;;;0.95;;
16426;SDS011;8322;-33.900;151.170;2022-12-20T14:00:15;5.65;;;1.17;;
16426;SDS011;8322;-33.900;151.170;2022-12-20T14:02:45;3.95;;;0.80;;
16426;SDS011;8322;-33.900;151.170;2022-12-20T14:05:16;2.83;;;1.10;;
16426;SDS011;8322;-33.900;151.170;2022-12-20T14:07:51;2.42;;;0.73;;
16426;SDS011;8322;-33.900;151.170;2022-12-20T14:10:24;2.17;;;0.70;;
16426;SDS011;8322;-33.900;151.170;2022-12-20T14:12:54;5.10;;;0.85;;
16426;SDS011;8322;-33.900;151.170;2022-12-20T14:15:27;3.00;;;0.82;;
16426;SDS011;8322;-33.900;151.170;2022-12-20T14:18:03;4.07;;;0.93;;
16426;SDS011;8322;-33.900;151.170;2022-12-20T14:20:33;3.53;;;0.73;;
16426;SDS011;8322;-33.900;151.170;2022-12-20T14:23:05;3.92;;;0.85;;
16426;SDS011;8322;-33.900;151.170;2022-12-20T14:25:40;4.30;;;0.80;;
16426;SDS011;8322;-33.900;151.170;2022-12-20T14:28:15;4.15;;;0.90;;
16426;SDS011;8322;-33.900;151.170;2022-12-20T14:30:46;3.45;;;0.88;;
16426;SDS011;8322;-33.900;151.170;2022-12-20T14:33:22;2.38;;;0.88;;
16426;SDS011;8322;-33.900;151.170;2022-12-20T14:35:53;2.97;;;0.90;;
16426;SDS011;8322;-33.900;151.170;2022-12-20T14:38:28;5.05;;;0.90;;
16426;SDS011;8322;-33.900;151.170;2022-12-20T14:40:58;5.88;;;1.02;;
16426;SDS011;8322;-33.900;151.170;2022-12-20T14:43:28;2.67;;;0.95;;
16426;SDS011;8322;-33.900;151.170;2022-12-20T14:46:16;5.55;;;1.00;;
16426;SDS011;8322;-33.900;151.170;2022-12-20T14:48:46;2.22;;;0.90;;
16426;SDS011;8322;-33.900;151.170;2022-12-20T14:51:18;3.55;;;1.10;;
16426;SDS011;8322;-33.900;151.170;2022-12-20T14:53:50;3.58;;;0.90;;
16426;SDS011;8322;-33.900;151.170;2022-12-20T14:56:20;2.53;;;0.90;;
16426;SDS011;8322;-33.900;151.170;2022-12-20T14:59:00;7.47;;;1.50;;
16426;SDS011;8322;-33.900;151.170;2022-12-20T15:01:30;3.33;;;1.00;;
16426;SDS011;8322;-33.900;151.170;2022-12-20T15:03:59;4.13;;;0.82;;
16426;SDS011;8322;-33.900;151.170;2022-12-20T15:06:33;5.15;;;0.95;;
16426;SDS011;8322;-33.900;151.170;2022-12-20T15:09:05;3.15;;;0.98;;
16426;SDS011;8322;-33.900;151.170;2022-12-20T15:11:35;3.58;;;1.05;;
16426;SDS011;8322;-33.900;151.170;2022-12-20T15:14:09;2.95;;;1.00;;
16426;SDS011;8322;-33.900;151.170;2022-12-20T15:16:46;4.65;;;1.02;;
16426;SDS011;8322;-33.900;151.170;2022-12-20T15:19:15;3.80;;;1.00;;